Time;durP1;ratioP1;P1;durP2;ratioP2;P2;SDS_P1;SDS_P2;PMS_P1;PMS_P2;Temp;Humidity;BMP_temperature;BMP_pressure;BME280_temperature;BME280_humidity;BME280_pressure;Samples;Min_cycle;Max_cycle;Signal;HPM_P1;HPM_P2
2022/03/22 00:02:23;;;;;;;87.68;44.60;;;3.40;99.90;;;;;;5035360;28;20178;-77
2022/03/22 00:04:49;;;;;;;88.82;46.10;;;3.40;99.90;;;;;;5035331;28;20034;-77
2022/03/22 00:07:15;;;;;;;87.55;43.97;;;3.40;99.90;;;;;;5035270;28;20038;-76
2022/03/22 00:09:41;;;;;;;89.22;44.78;;;3.60;99.90;;;;;;5034799;28;20111;-76
2022/03/22 00:12:07;;;;;;;92.63;43.22;;;3.40;99.90;;;;;;5035021;28;20056;-77
2022/03/22 00:14:33;;;;;;;85.32;44.92;;;3.40;99.90;;;;;;5035095;28;20045;-77
2022/03/22 00:16:59;;;;;;;88.82;44.08;;;3.40;99.90;;;;;;5033365;28;20046;-77
2022/03/22 00:19:24;;;;;;;93.88;49.13;;;3.40;99.90;;;;;;5034924;28;20104;-76
2022/03/22 00:21:50;;;;;;;102.03;51.10;;;3.40;99.90;;;;;;5034894;28;20046;-77
2022/03/22 00:24:16;;;;;;;94.80;46.72;;;3.50;99.90;;;;;;5034789;28;20120;-76
2022/03/22 00:26:41;;;;;;;100.28;51.22;;;3.50;99.90;;;;;;5033438;28;20076;-78
2022/03/22 00:29:07;;;;;;;97.22;48.97;;;3.50;99.90;;;;;;5034687;28;20042;-76
2022/03/22 00:31:33;;;;;;;101.47;49.00;;;3.50;99.90;;;;;;5034981;28;20147;-77
2022/03/22 00:33:58;;;;;;;91.80;46.70;;;3.40;99.90;;;;;;5034315;28;20511;-77
2022/03/22 00:36:24;;;;;;;97.93;46.92;;;3.40;99.90;;;;;;5034352;28;20052;-77
2022/03/22 00:38:50;;;;;;;88.20;46.33;;;3.40;99.90;;;;;;5034501;28;20432;-77
2022/03/22 00:41:17;;;;;;;99.18;47.35;;;3.40;99.90;;;;;;5034777;28;20080;-76
2022/03/22 00:43:43;;;;;;;100.40;47.08;;;3.30;99.90;;;;;;5034201;28;20062;-76
2022/03/22 00:46:09;;;;;;;85.50;46.95;;;3.30;99.90;;;;;;5034816;28;20053;-77
2022/03/22 00:48:35;;;;;;;87.80;47.30;;;3.30;99.90;;;;;;5034708;28;20037;-77
2022/03/22 00:51:01;;;;;;;100.03;49.67;;;3.20;99.90;;;;;;5034370;28;20041;-76
2022/03/22 00:53:27;;;;;;;98.25;50.97;;;3.20;99.90;;;;;;5034566;28;20120;-76
2022/03/22 00:55:52;;;;;;;92.07;48.53;;;3.20;99.90;;;;;;5033964;28;20386;-76
2022/03/22 00:58:19;;;;;;;101.38;50.20;;;3.10;99.90;;;;;;5034445;28;20381;-76
2022/03/22 01:00:44;;;;;;;104.53;52.22;;;3.10;99.90;;;;;;5034575;28;20060;-77
2022/03/22 01:03:10;;;;;;;99.57;50.75;;;3.10;99.90;;;;;;5034146;28;20045;-77
2022/03/22 01:05:37;;;;;;;103.70;53.53;;;3.10;99.90;;;;;;5034329;28;20049;-76
2022/03/22 01:08:11;;;;;;;109.18;52.05;;;3.10;99.90;;;;;;5033071;28;20061;-76
2022/03/22 01:10:39;;;;;;;93.00;48.00;;;3.20;99.90;;;;;;5034151;28;20403;-76
2022/03/22 01:13:06;;;;;;;102.93;49.92;;;3.20;99.90;;;;;;5034151;28;20096;-77
2022/03/22 01:15:34;;;;;;;101.68;50.67;;;3.20;99.90;;;;;;5034081;28;20116;-77
2022/03/22 01:18:04;;;;;;;98.72;50.10;;;3.30;99.90;;;;;;5033970;28;20044;-76
2022/03/22 01:20:31;;;;;;;95.05;49.47;;;3.30;99.90;;;;;;5034257;28;20372;-77
2022/03/22 01:22:57;;;;;;;98.85;49.38;;;3.20;99.90;;;;;;5032998;28;20065;-77
2022/03/22 01:25:27;;;;;;;99.57;52.45;;;3.30;99.90;;;;;;5034125;28;20675;-76
2022/03/22 01:27:53;;;;;;;100.57;49.28;;;3.20;99.90;;;;;;5032961;28;20087;-77
2022/03/22 01:30:20;;;;;;;99.50;52.83;;;3.20;99.90;;;;;;5033881;28;20045;-76
2022/03/22 01:32:48;;;;;;;93.82;51.33;;;3.60;99.90;;;;;;5033933;28;20081;-77
2022/03/22 01:35:14;;;;;;;93.57;49.15;;;3.30;99.90;;;;;;5032859;28;20081;-76
2022/03/22 01:37:40;;;;;;;93.32;51.08;;;3.20;99.90;;;;;;5034148;28;20072;-76
2022/03/22 01:40:08;;;;;;;95.35;50.65;;;3.20;99.90;;;;;;5033807;28;20052;-77
2022/03/22 01:42:34;;;;;;;90.80;47.15;;;3.20;99.90;;;;;;5033822;28;20052;-76
2022/03/22 01:45:01;;;;;;;96.65;50.03;;;3.20;99.90;;;;;;5033776;28;20050;-76
2022/03/22 01:47:28;;;;;;;88.25;49.35;;;3.20;99.90;;;;;;5034101;28;20057;-76
2022/03/22 01:49:53;;;;;;;93.28;47.28;;;3.20;99.90;;;;;;5037361;28;20041;-77
2022/03/22 01:52:22;;;;;;;95.32;48.03;;;3.20;99.90;;;;;;5037916;28;20052;-76
2022/03/22 01:54:51;;;;;;;101.50;48.53;;;3.20;99.90;;;;;;5036954;28;20053;-77
2022/03/22 01:57:18;;;;;;;85.88;46.72;;;3.10;99.90;;;;;;5037905;28;20102;-77
2022/03/22 01:59:45;;;;;;;94.60;50.40;;;3.10;99.90;;;;;;5036766;28;20140;-76
2022/03/22 02:07:41;;;;;;;96.22;49.63;;;3.10;99.90;;;;;;5037684;28;20050;-77
2022/03/22 02:10:07;;;;;;;94.00;47.58;;;3.10;99.90;;;;;;5037653;28;20459;-77
2022/03/22 02:12:33;;;;;;;106.25;50.45;;;3.10;99.90;;;;;;5036346;28;20121;-77
2022/03/22 02:14:59;;;;;;;91.60;47.03;;;3.10;99.90;;;;;;5037533;28;20033;-76
2022/03/22 02:17:24;;;;;;;92.18;48.97;;;3.20;99.90;;;;;;5037644;28;20041;-76
2022/03/22 02:19:50;;;;;;;93.55;47.08;;;3.30;99.90;;;;;;5037467;28;20536;-76
2022/03/22 02:22:18;;;;;;;101.65;47.75;;;3.30;99.90;;;;;;5037532;28;20689;-76
2022/03/22 02:24:45;;;;;;;94.50;47.28;;;3.30;99.90;;;;;;5036922;28;20053;-77
2022/03/22 02:27:10;;;;;;;91.53;47.05;;;3.40;99.90;;;;;;5035768;28;20045;-76
2022/03/22 02:29:36;;;;;;;96.53;50.05;;;3.20;99.90;;;;;;5037330;28;20053;-76
2022/03/22 02:32:03;;;;;;;91.20;48.10;;;3.20;99.90;;;;;;5037322;28;20052;-76
2022/03/22 02:34:30;;;;;;;93.90;49.75;;;3.20;99.90;;;;;;5035152;28;20072;-76
2022/03/22 02:36:56;;;;;;;92.20;49.40;;;3.20;99.90;;;;;;5035673;28;20480;-76
2022/03/22 02:39:22;;;;;;;90.28;47.38;;;3.10;99.90;;;;;;5037432;28;20128;-77
2022/03/22 02:41:51;;;;;;;88.85;46.42;;;3.10;99.90;;;;;;5037645;28;20116;-76
2022/03/22 02:44:20;;;;;;;93.40;49.17;;;3.00;99.90;;;;;;5037834;28;20045;-76
2022/03/22 02:46:46;;;;;;;98.07;48.67;;;3.00;99.90;;;;;;5038141;28;20076;-77
2022/03/22 02:49:13;;;;;;;96.65;48.05;;;3.00;99.90;;;;;;5037204;28;20091;-77
2022/03/22 02:51:39;;;;;;;97.88;53.30;;;3.00;99.90;;;;;;5036989;28;20089;-77
2022/03/22 02:54:05;;;;;;;102.13;50.88;;;3.10;99.90;;;;;;5035770;28;20049;-77
2022/03/22 02:56:30;;;;;;;90.85;50.80;;;3.00;99.90;;;;;;5035480;28;20048;-77
2022/03/22 02:58:56;;;;;;;98.90;51.90;;;2.90;99.90;;;;;;5035570;28;20396;-76
2022/03/22 03:01:22;;;;;;;95.60;49.78;;;2.90;99.90;;;;;;5034643;28;20545;-76
2022/03/22 03:03:47;;;;;;;96.20;51.08;;;3.00;99.90;;;;;;5036792;28;20046;-77
2022/03/22 03:06:13;;;;;;;99.30;51.22;;;3.00;99.90;;;;;;5036446;28;20086;-76
2022/03/22 03:08:38;;;;;;;94.45;48.25;;;3.00;99.90;;;;;;5036535;28;20045;-76
2022/03/22 03:11:05;;;;;;;93.15;46.78;;;2.90;99.90;;;;;;5036676;28;20135;-76
2022/03/22 03:14:38;;;;;;;97.82;51.33;;;2.80;99.90;;;;;;5036416;28;20104;-76
2022/03/22 03:16:16;;;;;;;98.60;48.33;;;2.70;99.90;;;;;;5036147;28;20057;-76
2022/03/22 03:18:42;;;;;;;109.25;53.75;;;2.70;99.90;;;;;;5036440;28;20045;-76
2022/03/22 03:21:08;;;;;;;109.28;52.58;;;2.70;99.90;;;;;;5036028;28;20107;-76
2022/03/22 03:23:33;;;;;;;105.28;51.92;;;2.60;99.90;;;;;;5036345;28;20164;-76
2022/03/22 03:25:59;;;;;;;112.53;51.15;;;2.50;99.90;;;;;;5035951;28;20468;-77
2022/03/22 03:28:24;;;;;;;108.45;52.80;;;2.60;99.90;;;;;;5036123;28;20503;-76
2022/03/22 03:30:50;;;;;;;101.40;51.33;;;2.70;99.90;;;;;;5036171;28;20046;-77
2022/03/22 03:33:16;;;;;;;104.95;52.58;;;2.70;99.90;;;;;;5036086;28;20048;-76
2022/03/22 03:35:41;;;;;;;108.60;51.78;;;2.70;99.90;;;;;;5036225;28;20176;-77
2022/03/22 03:38:08;;;;;;;101.68;51.13;;;2.80;99.90;;;;;;5036201;28;20048;-77
2022/03/22 03:43:17;;;;;;;100.63;49.58;;;2.60;99.90;;;;;;5035717;28;20145;-77
2022/03/22 03:48:27;;;;;;;109.47;52.78;;;2.50;99.90;;;;;;5035589;28;20065;-77
2022/03/22 03:50:53;;;;;;;97.60;45.55;;;2.50;99.90;;;;;;5035452;28;20407;-77
2022/03/22 03:53:19;;;;;;;97.35;47.30;;;3.10;99.90;;;;;;5035740;28;20095;-76
2022/03/22 03:55:44;;;;;;;98.88;47.65;;;2.50;99.90;;;;;;5035822;28;20037;-76
2022/03/22 03:58:10;;;;;;;93.53;45.95;;;2.50;99.90;;;;;;5035819;28;20081;-76
2022/03/22 04:00:35;;;;;;;95.20;45.60;;;2.40;99.90;;;;;;5035270;28;20042;-77
2022/03/22 04:03:01;;;;;;;96.65;45.53;;;2.30;99.90;;;;;;5034325;28;20073;-76
2022/03/22 04:05:26;;;;;;;102.63;46.75;;;2.30;99.90;;;;;;5035196;28;20056;-77
2022/03/22 04:07:52;;;;;;;112.47;48.03;;;2.30;99.90;;;;;;5034974;28;20045;-76
2022/03/22 04:10:18;;;;;;;97.97;46.38;;;2.30;99.90;;;;;;5035249;28;20057;-76
2022/03/22 04:12:44;;;;;;;103.25;48.88;;;2.30;99.90;;;;;;5035475;28;20041;-77
2022/03/22 04:15:10;;;;;;;101.68;47.78;;;2.20;99.90;;;;;;5035558;28;20049;-76
2022/03/22 04:17:36;;;;;;;108.47;51.28;;;2.20;99.90;;;;;;5034615;28;20408;-77
2022/03/22 04:20:02;;;;;;;102.18;51.42;;;2.20;99.90;;;;;;5036822;28;20077;-77
2022/03/22 04:22:28;;;;;;;112.10;49.33;;;2.20;99.90;;;;;;5036504;28;20038;-77
2022/03/22 04:24:53;;;;;;;115.13;52.40;;;2.10;99.90;;;;;;5017365;28;20064;-77
2022/03/22 04:32:48;;;;;;;112.30;52.05;;;2.10;99.90;;;;;;5035423;28;20076;-77
2022/03/22 04:35:18;;;;;;;128.63;56.30;;;2.10;99.90;;;;;;5034822;28;20050;-77
2022/03/22 04:37:47;;;;;;;115.15;52.13;;;2.20;99.90;;;;;;5035024;28;20499;-78
2022/03/22 04:40:14;;;;;;;114.78;54.45;;;2.20;99.90;;;;;;5033350;28;20435;-77
2022/03/22 04:42:40;;;;;;;117.55;54.58;;;2.20;99.90;;;;;;5034976;28;20166;-77
2022/03/22 04:45:07;;;;;;;113.93;53.75;;;2.20;99.90;;;;;;5034219;28;20526;-77
2022/03/22 04:47:33;;;;;;;117.95;55.67;;;2.20;99.90;;;;;;5034869;28;20045;-77
2022/03/22 04:49:59;;;;;;;106.57;50.50;;;2.30;99.90;;;;;;5034549;28;20125;-77
2022/03/22 04:57:54;;;;;;;106.68;47.28;;;2.20;99.90;;;;;;5034600;28;20491;-77
2022/03/22 05:00:20;;;;;;;113.68;48.70;;;2.10;99.90;;;;;;5034198;28;20045;-77
2022/03/22 05:02:47;;;;;;;118.10;51.63;;;2.10;99.90;;;;;;5034605;28;20057;-77
2022/03/22 05:05:14;;;;;;;113.63;49.92;;;2.10;99.90;;;;;;5034364;28;20060;-77
2022/03/22 05:07:39;;;;;;;111.43;51.70;;;2.10;99.90;;;;;;5034732;28;20076;-77
2022/03/22 05:10:05;;;;;;;111.70;50.03;;;2.00;99.90;;;;;;5033866;28;20069;-77
2022/03/22 05:12:31;;;;;;;103.63;47.53;;;2.00;99.90;;;;;;5034956;28;20053;-76
2022/03/22 05:14:57;;;;;;;110.47;46.65;;;2.00;99.90;;;;;;5034659;28;20045;-77
2022/03/22 05:17:23;;;;;;;102.53;44.97;;;2.00;99.90;;;;;;5016725;28;20045;-76
2022/03/22 05:19:50;;;;;;;105.82;45.00;;;1.90;99.90;;;;;;5034550;28;20071;-77
2022/03/22 05:22:17;;;;;;;100.38;45.22;;;1.80;99.90;;;;;;5034789;28;20081;-77
2022/03/22 05:24:43;;;;;;;110.38;49.80;;;1.80;99.90;;;;;;5034561;28;20046;-77
2022/03/22 05:27:09;;;;;;;109.18;47.55;;;1.80;99.90;;;;;;5035411;28;20128;-77
2022/03/22 05:29:35;;;;;;;117.65;49.75;;;1.60;99.90;;;;;;5020434;28;20045;-77
2022/03/22 05:32:01;;;;;;;113.82;48.78;;;1.60;99.90;;;;;;5033192;28;20040;-77
2022/03/22 05:34:27;;;;;;;109.22;46.15;;;1.50;99.90;;;;;;5034642;28;20468;-77
2022/03/22 05:36:52;;;;;;;106.38;48.50;;;1.60;99.90;;;;;;5034470;28;20480;-77
2022/03/22 05:39:18;;;;;;;105.40;46.47;;;1.70;99.90;;;;;;5034656;28;20450;-77
2022/03/22 05:41:44;;;;;;;108.63;48.90;;;1.70;99.90;;;;;;5034522;28;20052;-77
2022/03/22 05:44:12;;;;;;;104.60;46.38;;;1.70;99.90;;;;;;5034460;28;20057;-77
2022/03/22 05:46:39;;;;;;;104.60;45.03;;;1.70;99.90;;;;;;5013419;28;20046;-77
2022/03/22 05:49:05;;;;;;;102.78;45.53;;;1.70;99.90;;;;;;5014625;28;20121;-77
2022/03/22 05:51:30;;;;;;;107.90;46.38;;;2.00;99.90;;;;;;5014294;28;20532;-77
2022/03/22 05:53:56;;;;;;;104.38;48.13;;;1.60;99.90;;;;;;5024043;28;20376;-77
2022/03/22 05:56:21;;;;;;;100.03;47.42;;;1.60;99.90;;;;;;5034357;28;20487;-77
2022/03/22 05:58:47;;;;;;;106.03;49.08;;;1.60;99.90;;;;;;5034231;28;20114;-78
2022/03/22 06:01:13;;;;;;;110.20;49.40;;;1.70;99.90;;;;;;5032831;28;20045;-78
2022/03/22 06:03:38;;;;;;;103.28;48.80;;;1.70;99.90;;;;;;5032892;28;20093;-78
2022/03/22 06:06:04;;;;;;;105.88;50.17;;;1.80;99.90;;;;;;5031734;28;20093;-77
2022/03/22 06:08:29;;;;;;;106.30;49.30;;;1.80;99.90;;;;;;5029381;28;20049;-77
2022/03/22 06:10:56;;;;;;;110.97;50.00;;;1.90;99.90;;;;;;5030336;28;20135;-78
2022/03/22 06:13:22;;;;;;;101.82;49.35;;;2.00;99.90;;;;;;5012129;28;20042;-77
2022/03/22 06:15:47;;;;;;;109.97;49.25;;;2.10;99.90;;;;;;5013775;28;20046;-77
2022/03/22 06:18:13;;;;;;;93.70;46.67;;;2.10;99.90;;;;;;5013944;28;20042;-77
2022/03/22 06:20:44;;;;;;;92.80;45.42;;;2.10;99.90;;;;;;5012228;28;20077;-77
2022/03/22 06:23:11;;;;;;;96.00;47.00;;;2.10;99.90;;;;;;5014226;28;20045;-78
2022/03/22 06:25:37;;;;;;;89.75;45.05;;;2.10;99.90;;;;;;5013825;28;20041;-78
2022/03/22 06:28:06;;;;;;;84.30;44.58;;;2.70;99.90;;;;;;5014104;28;20038;-77
2022/03/22 06:30:33;;;;;;;91.45;44.03;;;2.30;99.90;;;;;;5013118;28;20511;-77
2022/03/22 06:33:22;;;;;;;83.88;43.03;;;2.40;99.90;;;;;;5013659;28;20137;-78
2022/03/22 06:35:48;;;;;;;85.05;42.17;;;2.50;99.90;;;;;;5017198;28;20057;-78
2022/03/22 06:38:14;;;;;;;82.55;43.08;;;2.60;99.90;;;;;;4999175;28;20049;-78
2022/03/22 06:40:40;;;;;;;81.55;41.65;;;2.70;99.90;;;;;;5017036;28;20106;-78
2022/03/22 06:43:10;;;;;;;78.07;40.15;;;2.80;99.90;;;;;;5018699;28;20496;-78
2022/03/22 06:45:37;;;;;;;80.70;43.08;;;2.90;99.90;;;;;;5016762;28;20063;-78
2022/03/22 06:48:07;;;;;;;69.20;39.35;;;3.00;99.90;;;;;;5016938;28;20096;-78
2022/03/22 06:50:33;;;;;;;76.00;37.30;;;3.10;99.90;;;;;;5016944;28;20116;-77
2022/03/22 06:52:59;;;;;;;72.53;41.40;;;3.20;99.90;;;;;;5017317;28;20049;-78
2022/03/22 06:55:25;;;;;;;74.13;39.72;;;3.80;99.90;;;;;;5016541;28;20042;-78
2022/03/22 06:57:51;;;;;;;73.32;39.55;;;3.40;99.90;;;;;;5015756;28;20041;-78
2022/03/22 07:00:20;;;;;;;71.38;40.50;;;3.50;99.90;;;;;;5016499;28;20053;-78
2022/03/22 07:02:47;;;;;;;71.45;36.65;;;3.60;99.90;;;;;;5016267;28;20420;-78
2022/03/22 07:05:13;;;;;;;68.25;39.65;;;3.70;99.90;;;;;;5013593;28;20046;-79
2022/03/22 07:07:39;;;;;;;74.03;38.95;;;3.90;99.90;;;;;;5012461;28;20044;-78
2022/03/22 07:10:07;;;;;;;70.43;39.92;;;4.00;99.90;;;;;;5014442;28;20042;-78
2022/03/22 07:12:33;;;;;;;82.10;42.65;;;4.20;99.90;;;;;;5013999;28;20383;-78
2022/03/22 07:14:59;;;;;;;73.50;40.90;;;4.40;99.90;;;;;;5012376;28;20034;-78
2022/03/22 07:17:24;;;;;;;76.80;43.83;;;4.50;99.90;;;;;;5031962;28;20041;-77
2022/03/22 07:19:51;;;;;;;74.82;41.55;;;4.70;99.90;;;;;;5031623;28;20257;-78
2022/03/22 07:22:17;;;;;;;71.07;39.95;;;4.90;99.90;;;;;;5032803;28;20187;-78
2022/03/22 07:24:42;;;;;;;70.68;40.15;;;5.10;99.90;;;;;;5031829;28;20041;-78
2022/03/22 07:27:08;;;;;;;70.95;38.90;;;5.30;99.90;;;;;;5031998;28;20088;-78
2022/03/22 07:29:34;;;;;;;71.22;39.72;;;5.60;99.90;;;;;;5015524;28;20057;-78
2022/03/22 07:31:59;;;;;;;70.97;41.38;;;5.80;99.90;;;;;;5031593;28;20132;-78
2022/03/22 07:34:27;;;;;;;64.70;38.40;;;6.00;99.90;;;;;;5033479;28;20156;-78
2022/03/22 07:36:53;;;;;;;61.97;38.45;;;6.10;99.90;;;;;;5033094;28;20057;-78
2022/03/22 07:39:20;;;;;;;63.13;36.67;;;6.30;99.90;;;;;;5032021;28;20046;-78
2022/03/22 07:41:46;;;;;;;56.30;34.33;;;6.40;99.90;;;;;;5032819;28;20187;-79
2022/03/22 07:44:13;;;;;;;54.45;34.38;;;6.60;99.90;;;;;;5032829;28;20518;-79
2022/03/22 07:46:39;;;;;;;133.25;42.83;;;6.80;99.90;;;;;;5033165;28;20072;-79
2022/03/22 07:54:34;;;;;;;57.50;34.80;;;7.60;99.90;;;;;;5034932;28;20049;-78
2022/03/22 07:56:59;;;;;;;50.03;31.77;;;7.90;99.90;;;;;;5034679;28;20033;-79
2022/03/22 07:59:27;;;;;;;55.40;34.28;;;8.10;99.90;;;;;;5032966;28;20077;-78
2022/03/22 08:01:53;;;;;;;56.67;35.50;;;8.40;99.90;;;;;;5035084;28;20048;-78
2022/03/22 08:04:19;;;;;;;54.63;32.72;;;8.60;99.90;;;;;;5033674;28;20045;-78
2022/03/22 08:06:44;;;;;;;56.65;33.95;;;8.90;99.90;;;;;;5034245;28;20052;-78
2022/03/22 08:09:10;;;;;;;48.25;29.77;;;9.20;99.90;;;;;;5017359;28;20045;-78
2022/03/22 08:11:36;;;;;;;54.80;32.03;;;9.40;99.90;;;;;;5034458;28;20041;-79
2022/03/22 08:14:03;;;;;;;45.90;29.45;;;9.60;99.90;;;;;;5034741;28;20041;-78
2022/03/22 08:16:29;;;;;;;50.22;28.42;;;9.80;99.90;;;;;;5034118;28;20041;-78
2022/03/22 08:18:54;;;;;;;42.60;25.02;;;10.00;99.90;;;;;;5034861;28;20041;-79
2022/03/22 08:21:20;;;;;;;36.45;22.58;;;10.20;99.90;;;;;;5033593;28;20467;-79
2022/03/22 08:23:46;;;;;;;37.95;21.48;;;10.60;99.90;;;;;;5034518;28;20051;-79
2022/03/22 08:26:13;;;;;;;34.55;19.55;;;10.80;99.90;;;;;;5034561;28;20116;-79
2022/03/22 08:28:39;;;;;;;34.38;20.08;;;11.10;99.90;;;;;;5034825;28;20077;-76
2022/03/22 08:31:05;;;;;;;35.72;19.52;;;11.30;99.90;;;;;;5035101;28;20077;-76
2022/03/22 08:33:30;;;;;;;32.83;19.48;;;11.50;99.90;;;;;;5035274;28;20041;-77
2022/03/22 08:35:56;;;;;;;32.30;18.67;;;11.90;99.90;;;;;;5035070;28;20049;-77
2022/03/22 08:38:24;;;;;;;35.30;18.90;;;12.00;99.90;;;;;;5034855;28;20067;-77
2022/03/22 08:40:50;;;;;;;33.35;18.75;;;12.10;99.90;;;;;;5033255;28;20048;-77
2022/03/22 08:43:19;;;;;;;38.30;20.90;;;12.30;99.90;;;;;;5032858;28;20507;-77
2022/03/22 08:45:45;;;;;;;35.53;19.02;;;12.40;99.90;;;;;;5034011;28;20103;-77
2022/03/22 08:48:12;;;;;;;33.47;18.52;;;12.40;99.90;;;;;;5034507;28;20037;-76
2022/03/22 08:50:40;;;;;;;33.40;19.58;;;12.60;99.60;;;;;;5034041;28;20052;-80
2022/03/22 08:53:06;;;;;;;31.45;19.58;;;12.60;99.90;;;;;;5033164;28;20053;-79
2022/03/22 08:55:36;;;;;;;34.85;18.92;;;12.60;99.90;;;;;;5032517;28;20393;-79
2022/03/22 08:58:05;;;;;;;34.00;19.20;;;12.70;99.90;;;;;;5032341;28;20052;-77
2022/03/22 09:00:32;;;;;;;33.25;19.38;;;12.80;99.00;;;;;;5034381;28;20117;-79
2022/03/22 09:02:58;;;;;;;31.90;19.33;;;13.10;99.90;;;;;;5032868;28;20053;-77
2022/03/22 09:08:08;;;;;;;37.05;19.40;;;14.10;95.30;;;;;;5034494;28;20057;-77
2022/03/22 09:10:35;;;;;;;31.58;18.73;;;14.80;91.70;;;;;;5033897;28;20037;-77
2022/03/22 09:13:01;;;;;;;34.95;19.52;;;15.40;91.50;;;;;;5034176;28;20041;-77
2022/03/22 09:15:28;;;;;;;29.20;18.63;;;15.90;91.60;;;;;;5034210;28;20045;-77
2022/03/22 09:17:57;;;;;;;29.25;19.13;;;16.30;81.40;;;;;;5032934;28;20045;-77
2022/03/22 09:20:24;;;;;;;31.83;19.38;;;16.80;75.30;;;;;;5034014;28;20404;-77
2022/03/22 09:22:51;;;;;;;30.73;19.52;;;17.10;71.90;;;;;;5032707;28;20096;-77
2022/03/22 09:25:18;;;;;;;35.72;19.15;;;17.30;70.40;;;;;;5033415;28;20049;-78
2022/03/22 09:27:44;;;;;;;31.42;19.77;;;17.70;62.70;;;;;;5033905;28;20484;-78
2022/03/22 09:30:12;;;;;;;30.55;20.55;;;17.70;62.10;;;;;;5033496;28;20472;-77
2022/03/22 09:32:39;;;;;;;33.45;22.85;;;17.90;59.20;;;;;;5033421;28;20041;-78
2022/03/22 09:35:07;;;;;;;35.30;20.95;;;18.10;57.40;;;;;;5015639;28;20100;-77
2022/03/22 09:37:34;;;;;;;34.10;20.38;;;18.20;56.60;;;;;;5032590;28;20046;-78
2022/03/22 09:40:00;;;;;;;31.52;20.92;;;18.40;56.20;;;;;;5032552;28;20467;-77
2022/03/22 09:42:27;;;;;;;33.65;19.60;;;18.50;57.10;;;;;;5032466;28;20041;-78
2022/03/22 09:44:53;;;;;;;33.28;20.35;;;18.70;53.20;;;;;;5032698;28;20064;-78
2022/03/22 09:47:19;;;;;;;32.10;20.23;;;18.90;54.80;;;;;;5033828;28;20491;-78
2022/03/22 09:49:45;;;;;;;33.22;18.42;;;19.00;52.80;;;;;;5032205;28;20042;-78
2022/03/22 09:52:11;;;;;;;29.75;19.33;;;18.90;46.70;;;;;;5033395;28;20068;-78
2022/03/22 09:54:39;;;;;;;31.83;17.60;;;18.60;42.80;;;;;;5033259;28;20069;-78
2022/03/22 09:57:05;;;;;;;26.63;18.15;;;18.50;40.50;;;;;;5032260;28;20038;-78
2022/03/22 09:59:33;;;;;;;28.42;17.35;;;18.70;39.80;;;;;;5033312;28;20116;-78
2022/03/22 10:02:03;;;;;;;31.20;19.10;;;18.60;44.80;;;;;;5032071;28;20476;-78
2022/03/22 10:04:37;;;;;;;26.90;18.83;;;18.60;43.30;;;;;;5015639;28;20099;-78
2022/03/22 10:07:05;;;;;;;30.52;20.33;;;18.50;39.20;;;;;;5033097;28;20041;-78
2022/03/22 10:09:33;;;;;;;26.38;18.05;;;18.60;43.20;;;;;;5034319;28;20077;-78
2022/03/22 10:11:59;;;;;;;26.75;17.92;;;18.80;44.80;;;;;;5035941;28;20538;-78
2022/03/22 10:14:38;;;;;;;28.92;18.17;;;18.90;44.70;;;;;;5037104;28;20072;-79
2022/03/22 10:17:20;;;;;;;29.70;18.63;;;18.90;40.20;;;;;;5037044;28;20077;-79
2022/03/22 10:19:52;;;;;;;27.63;18.42;;;19.10;41.90;;;;;;5037054;28;20561;-79
2022/03/22 10:22:27;;;;;;;27.98;19.13;;;19.60;34.30;;;;;;5035568;28;20432;-79
2022/03/22 10:24:57;;;;;;;31.55;19.52;;;19.60;37.20;;;;;;5037441;28;20053;-79
2022/03/22 10:27:26;;;;;;;28.77;17.23;;;19.60;38.00;;;;;;5036241;28;20042;-79
2022/03/22 10:29:52;;;;;;;32.53;19.13;;;19.60;36.60;;;;;;5037351;28;20387;-79
2022/03/22 10:32:38;;;;;;;34.13;19.15;;;19.80;31.70;;;;;;5037231;28;20404;-79
2022/03/22 10:35:21;;;;;;;32.72;19.52;;;20.10;29.90;;;;;;5037127;28;20137;-79
2022/03/22 10:37:50;;;;;;;35.05;19.55;;;19.60;34.50;;;;;;5035974;28;20141;-79
2022/03/22 10:40:27;;;;;;;26.02;19.17;;;19.40;30.90;;;;;;5019018;28;20091;-78
2022/03/22 10:42:56;;;;;;;25.80;18.83;;;19.50;33.20;;;;;;5036958;28;20052;-79
2022/03/22 10:45:21;;;;;;;30.65;19.77;;;19.00;33.10;;;;;;5018841;28;20556;-79
2022/03/22 10:47:47;;;;;;;26.63;19.23;;;19.20;31.70;;;;;;5037052;28;20080;-78
2022/03/22 10:50:13;;;;;;;31.10;21.92;;;18.90;33.80;;;;;;5018437;28;20057;-78
2022/03/22 10:52:54;;;;;;;32.35;21.05;;;19.10;37.60;;;;;;5018678;28;20053;-78
2022/03/22 10:55:21;;;;;;;34.55;21.45;;;19.10;34.50;;;;;;5035538;28;20060;-79
2022/03/22 10:57:56;;;;;;;29.95;19.77;;;19.20;37.50;;;;;;5035389;28;20053;-78
2022/03/22 11:00:23;;;;;;;29.85;20.92;;;19.20;36.20;;;;;;5036105;28;20069;-79
2022/03/22 11:02:51;;;;;;;30.48;19.75;;;19.20;36.70;;;;;;5035368;28;20053;-79
2022/03/22 11:05:19;;;;;;;28.98;18.70;;;19.10;39.10;;;;;;5018682;28;20175;-79
2022/03/22 11:07:50;;;;;;;30.08;20.05;;;19.00;33.10;;;;;;5037417;28;20133;-79
2022/03/22 11:10:29;;;;;;;34.45;19.85;;;19.20;41.00;;;;;;5036435;28;20427;-79
2022/03/22 11:12:58;;;;;;;30.17;20.05;;;19.10;33.30;;;;;;5035265;28;20507;-79
2022/03/22 11:15:25;;;;;;;29.75;19.92;;;19.20;38.40;;;;;;5036690;28;20057;-78
2022/03/22 11:17:52;;;;;;;31.00;19.50;;;19.10;42.10;;;;;;5035952;28;20077;-78
2022/03/22 11:20:18;;;;;;;36.53;19.88;;;19.50;42.70;;;;;;5037175;28;20468;-79
2022/03/22 11:22:54;;;;;;;35.70;18.70;;;19.70;38.50;;;;;;5036833;28;20041;-78
2022/03/22 11:25:35;;;;;;;32.83;20.55;;;20.00;34.90;;;;;;5038053;28;20084;-79
2022/03/22 11:28:08;;;;;;;39.42;18.92;;;19.60;30.30;;;;;;5039735;28;20049;-80
2022/03/22 11:30:39;;;;;;;31.67;19.75;;;19.70;34.80;;;;;;5022108;28;20052;-79
2022/03/22 11:35:57;;;;;;;30.20;21.33;;;20.00;32.30;;;;;;5036840;28;20156;-79
2022/03/22 11:38:44;;;;;;;32.17;21.30;;;20.00;30.40;;;;;;5037088;28;20045;-79
2022/03/22 11:44:31;;;;;;;33.90;21.30;;;20.40;28.70;;;;;;5013826;28;20083;-79
2022/03/22 11:47:09;;;;;;;32.13;19.90;;;20.50;28.70;;;;;;5035270;28;20190;-79
2022/03/22 11:49:51;;;;;;;31.13;19.48;;;20.70;27.10;;;;;;5018704;28;20045;-79
2022/03/22 11:52:18;;;;;;;32.78;19.92;;;20.70;26.10;;;;;;5036871;28;20182;-79
2022/03/22 11:55:16;;;;;;;31.95;20.48;;;20.80;26.20;;;;;;5036309;28;20120;-80
2022/03/22 11:58:01;;;;;;;31.85;19.20;;;20.80;25.70;;;;;;5018992;28;20075;-79
2022/03/22 12:00:51;;;;;;;29.90;18.50;;;21.00;25.10;;;;;;5018719;28;20041;-79
2022/03/22 12:03:21;;;;;;;30.73;19.08;;;20.80;24.40;;;;;;5034804;28;20038;-79
2022/03/22 12:05:47;;;;;;;34.03;20.23;;;21.20;25.60;;;;;;5018540;28;20045;-79
2022/03/22 12:08:15;;;;;;;35.58;20.67;;;21.00;25.90;;;;;;5035247;28;20037;-79
2022/03/22 12:10:52;;;;;;;34.45;20.08;;;21.30;24.40;;;;;;5037126;28;20139;-79
2022/03/22 12:13:18;;;;;;;30.88;19.55;;;21.10;24.00;;;;;;5002641;28;20112;-80
2022/03/22 12:15:44;;;;;;;30.65;20.02;;;21.20;25.10;;;;;;5035411;28;20073;-79
2022/03/22 12:18:11;;;;;;;32.85;18.60;;;21.20;24.00;;;;;;5019420;28;20045;-79
2022/03/22 12:20:38;;;;;;;33.25;20.92;;;20.90;21.80;;;;;;5018643;28;20467;-79
2022/03/22 12:23:06;;;;;;;33.70;20.52;;;20.70;23.50;;;;;;5035955;28;20045;-80
2022/03/22 12:25:37;;;;;;;29.88;19.65;;;20.90;24.60;;;;;;5035633;28;20045;-79
2022/03/22 12:28:10;;;;;;;28.92;18.52;;;21.90;21.60;;;;;;5034076;28;20092;-79
2022/03/22 12:30:38;;;;;;;30.50;19.58;;;22.70;21.10;;;;;;5031687;28;20263;-80
2022/03/22 12:33:07;;;;;;;35.00;20.83;;;21.60;21.10;;;;;;5031737;28;20357;-80
2022/03/22 12:35:34;;;;;;;31.45;20.65;;;21.40;20.90;;;;;;5031882;28;20037;-80
2022/03/22 12:38:00;;;;;;;31.55;18.67;;;21.70;21.70;;;;;;5017789;28;20041;-80
2022/03/22 12:40:27;;;;;;;30.02;18.60;;;22.20;21.40;;;;;;5018970;28;20069;-81
2022/03/22 12:42:54;;;;;;;30.83;20.27;;;21.00;21.30;;;;;;5037696;28;20380;-79
2022/03/22 12:45:21;;;;;;;29.90;18.90;;;21.30;21.50;;;;;;5037078;28;20053;-80
2022/03/22 12:47:50;;;;;;;40.03;19.88;;;21.50;22.20;;;;;;5037905;28;20058;-81
2022/03/22 12:50:18;;;;;;;36.42;21.23;;;21.90;21.40;;;;;;5019121;28;20045;-81
2022/03/22 12:52:44;;;;;;;30.45;21.10;;;21.50;20.10;;;;;;5038704;28;20511;-79
2022/03/22 12:55:12;;;;;;;32.85;20.30;;;22.20;20.30;;;;;;5022853;28;20049;-79
2022/03/22 12:57:42;;;;;;;32.13;20.02;;;22.10;22.10;;;;;;5038367;28;20098;-79
2022/03/22 13:00:09;;;;;;;30.83;20.95;;;21.70;20.80;;;;;;5038086;28;20098;-79
2022/03/22 13:02:38;;;;;;;31.70;20.38;;;21.90;20.60;;;;;;5037874;28;20060;-79
2022/03/22 13:05:05;;;;;;;29.63;18.50;;;21.90;20.40;;;;;;5039473;28;20041;-79
2022/03/22 13:07:31;;;;;;;29.25;19.83;;;22.10;21.00;;;;;;5039234;28;20053;-79
2022/03/22 13:12:43;;;;;;;34.08;18.85;;;22.50;19.20;;;;;;5039523;28;20136;-80